FYRU

Rundu Airport

Rundu, Namibia
TAF FYRU 190800Z 1909/1918 36006KT CAVOK BECMG 1910/1912 9999 SCT040
Issued Valid From Valid To
Oct-19 @ 08:00 UTC
(an hour ago)
Oct-19 @ 09:00 UTC
(6 minutes ago)
Oct-19 @ 18:00 UTC
(in 9 hours)
Oct-19 @ 09:00 to Oct-19 @ 10:00
TAF FYRU 190800Z 1909/1918 36006KT CAVOK
Wind Visibility Clouds Conditions
360° at 6 knots 10,000+ meters
  • No significant clouds
Becoming Oct-19 @ 10:00 to Oct-19 @ 18:00
BECMG 1910/1912 9999 SCT040
Wind Visibility Clouds Conditions
360° at 6 knots 10,000+ meters
  • Scattered at 4,000' AGL
TAF FYRU 190800Z 1909/1918 36006KT CAVOK BECMG 1910/1912 9999 SCT040
Issued Oct-19 @ 08:00 UTC
(an hour ago)
Valid From Oct-19 @ 09:00 UTC
(6 minutes ago)
Valid To Oct-19 @ 18:00 UTC
(in 9 hours)
Oct-19 @ 09:00 - Oct-19 @ 10:00
Wind Visibility
360° at 6 knots 10,000+ meters
Clouds
  • No significant clouds
Conditions
Becoming Oct-19 @ 10:00 - Oct-19 @ 18:00
Wind Visibility
360° at 6 knots 10,000+ meters
Clouds
  • Scattered at 4,000' AGL
Conditions